KCEW/CEW METAR and TAF weather

Enter ICAO airport designator
Station Type Date Time Source
KCEW METAR 2020/09/19 02:53 UTC NOAA

KCEW 190253Z AUTO 00000KT 10SM CLR 24/21 A2998 RMK AO2 SLP149 T02440211 51012


Station Type Date Time Source
KCEW Decoded METAR 2020/09/19 02:53 UTC NOAA

CRESTVIEW SIKES AIRPORT, FL, United States (KCEW) 30-46N 086-31W 55M
Sep 18, 2020 - 10:53 PM EDT / 2020.09.19 0253 UTC
Wind: Calm:0
Visibility: 10 mile(s):0
Sky conditions: clear
Temperature: 75.9 F (24.4 C)
Dew Point: 70.0 F (21.1 C)
Relative Humidity: 81%
Pressure (altimeter): 29.98 in. Hg (1015 hPa)
Pressure tendency: 0.04 inches (1.2 hPa) higher than three hours ago
ob: KCEW 190253Z AUTO 00000KT 10SM CLR 24/21 A2998 RMK AO2 SLP149 T02440211 51012
cycle: 3

Station Type Date Time Source
KCEW TAF UTC NOAA

Error!

Example: see airport list